sensor_id;sensor_type;location;lat;lon;timestamp;P1;durP1;ratioP1;P2;durP2;ratioP2
34982;SDS011;21187;50.976;13.720;2022-09-12T00:01:44;14.30;;;8.30;;
34982;SDS011;21187;50.976;13.720;2022-09-12T00:06:46;18.83;;;9.35;;
34982;SDS011;21187;50.976;13.720;2022-09-12T00:11:48;22.98;;;9.38;;
34982;SDS011;21187;50.976;13.720;2022-09-12T00:16:50;18.73;;;9.63;;
34982;SDS011;21187;50.976;13.720;2022-09-12T00:21:53;16.45;;;9.02;;
34982;SDS011;21187;50.976;13.720;2022-09-12T00:26:55;16.92;;;9.43;;
34982;SDS011;21187;50.976;13.720;2022-09-12T00:31:57;22.85;;;9.55;;
34982;SDS011;21187;50.976;13.720;2022-09-12T00:36:59;19.77;;;10.77;;
34982;SDS011;21187;50.976;13.720;2022-09-12T00:42:00;22.83;;;9.90;;
34982;SDS011;21187;50.976;13.720;2022-09-12T00:47:03;19.23;;;9.82;;
34982;SDS011;21187;50.976;13.720;2022-09-12T00:57:29;22.98;;;10.40;;
34982;SDS011;21187;50.976;13.720;2022-09-12T01:02:56;21.40;;;10.63;;
34982;SDS011;21187;50.976;13.720;2022-09-12T01:08:02;23.25;;;11.35;;
34982;SDS011;21187;50.976;13.720;2022-09-12T01:13:06;19.80;;;10.80;;
34982;SDS011;21187;50.976;13.720;2022-09-12T01:18:12;23.70;;;10.90;;
34982;SDS011;21187;50.976;13.720;2022-09-12T01:44:48;25.70;;;10.85;;
34982;SDS011;21187;50.976;13.720;2022-09-12T01:50:07;24.15;;;11.38;;
34982;SDS011;21187;50.976;13.720;2022-09-12T01:55:48;19.10;;;10.70;;
34982;SDS011;21187;50.976;13.720;2022-09-12T02:06:43;23.52;;;11.07;;
34982;SDS011;21187;50.976;13.720;2022-09-12T02:11:52;24.02;;;12.05;;
34982;SDS011;21187;50.976;13.720;2022-09-12T02:17:06;25.50;;;10.60;;
34982;SDS011;21187;50.976;13.720;2022-09-12T02:22:14;21.35;;;10.70;;
34982;SDS011;21187;50.976;13.720;2022-09-12T02:27:20;22.58;;;10.68;;
34982;SDS011;21187;50.976;13.720;2022-09-12T02:32:39;25.35;;;11.20;;
34982;SDS011;21187;50.976;13.720;2022-09-12T02:43:03;30.45;;;11.15;;
34982;SDS011;21187;50.976;13.720;2022-09-12T02:48:14;25.48;;;11.23;;
34982;SDS011;21187;50.976;13.720;2022-09-12T02:53:21;24.77;;;12.20;;
34982;SDS011;21187;50.976;13.720;2022-09-12T02:58:24;25.73;;;11.20;;
34982;SDS011;21187;50.976;13.720;2022-09-12T03:08:48;27.92;;;11.90;;
34982;SDS011;21187;50.976;13.720;2022-09-12T03:13:59;24.58;;;11.98;;
34982;SDS011;21187;50.976;13.720;2022-09-12T03:19:24;30.83;;;12.77;;
34982;SDS011;21187;50.976;13.720;2022-09-12T03:24:36;29.27;;;11.93;;
34982;SDS011;21187;50.976;13.720;2022-09-12T03:29:44;33.50;;;13.65;;
34982;SDS011;21187;50.976;13.720;2022-09-12T03:34:48;28.08;;;12.30;;
34982;SDS011;21187;50.976;13.720;2022-09-12T03:39:50;29.02;;;13.13;;
34982;SDS011;21187;50.976;13.720;2022-09-12T03:44:52;28.70;;;13.18;;
34982;SDS011;21187;50.976;13.720;2022-09-12T03:49:53;32.58;;;13.38;;
34982;SDS011;21187;50.976;13.720;2022-09-12T03:54:55;30.40;;;13.30;;
34982;SDS011;21187;50.976;13.720;2022-09-12T03:59:57;27.73;;;12.23;;
34982;SDS011;21187;50.976;13.720;2022-09-12T04:04:59;29.13;;;12.77;;
34982;SDS011;21187;50.976;13.720;2022-09-12T04:10:01;30.10;;;13.65;;
34982;SDS011;21187;50.976;13.720;2022-09-12T04:15:04;36.17;;;14.93;;
34982;SDS011;21187;50.976;13.720;2022-09-12T04:20:07;32.75;;;14.63;;
34982;SDS011;21187;50.976;13.720;2022-09-12T04:25:09;35.72;;;14.68;;
34982;SDS011;21187;50.976;13.720;2022-09-12T04:30:13;37.00;;;15.20;;
34982;SDS011;21187;50.976;13.720;2022-09-12T04:35:15;31.50;;;14.88;;
34982;SDS011;21187;50.976;13.720;2022-09-12T04:40:17;38.70;;;14.93;;
34982;SDS011;21187;50.976;13.720;2022-09-12T04:45:19;37.35;;;16.92;;
34982;SDS011;21187;50.976;13.720;2022-09-12T04:50:21;38.80;;;15.35;;
34982;SDS011;21187;50.976;13.720;2022-09-12T04:55:23;33.55;;;15.90;;
34982;SDS011;21187;50.976;13.720;2022-09-12T05:00:25;35.25;;;14.52;;
34982;SDS011;21187;50.976;13.720;2022-09-12T05:05:28;32.35;;;15.43;;
34982;SDS011;21187;50.976;13.720;2022-09-12T05:10:29;36.47;;;15.27;;
34982;SDS011;21187;50.976;13.720;2022-09-12T05:15:31;30.45;;;15.65;;
34982;SDS011;21187;50.976;13.720;2022-09-12T05:20:33;37.33;;;14.38;;
34982;SDS011;21187;50.976;13.720;2022-09-12T05:25:35;32.47;;;14.30;;
34982;SDS011;21187;50.976;13.720;2022-09-12T05:30:37;30.10;;;15.02;;
34982;SDS011;21187;50.976;13.720;2022-09-12T05:35:39;35.03;;;14.75;;
34982;SDS011;21187;50.976;13.720;2022-09-12T05:40:42;39.20;;;15.05;;
34982;SDS011;21187;50.976;13.720;2022-09-12T05:45:44;32.85;;;13.57;;
34982;SDS011;21187;50.976;13.720;2022-09-12T05:50:45;36.13;;;15.63;;
34982;SDS011;21187;50.976;13.720;2022-09-12T05:55:47;36.05;;;14.95;;
34982;SDS011;21187;50.976;13.720;2022-09-12T06:00:49;36.97;;;14.32;;
34982;SDS011;21187;50.976;13.720;2022-09-12T06:05:51;32.90;;;15.50;;
34982;SDS011;21187;50.976;13.720;2022-09-12T06:10:57;35.08;;;14.70;;
34982;SDS011;21187;50.976;13.720;2022-09-12T06:16:03;31.27;;;14.45;;
34982;SDS011;21187;50.976;13.720;2022-09-12T06:21:07;36.63;;;14.80;;
34982;SDS011;21187;50.976;13.720;2022-09-12T06:26:13;31.10;;;14.48;;
34982;SDS011;21187;50.976;13.720;2022-09-12T06:31:18;29.08;;;13.85;;
34982;SDS011;21187;50.976;13.720;2022-09-12T06:36:25;38.20;;;15.05;;
34982;SDS011;21187;50.976;13.720;2022-09-12T06:41:29;29.30;;;13.52;;
34982;SDS011;21187;50.976;13.720;2022-09-12T06:46:32;38.78;;;14.20;;
34982;SDS011;21187;50.976;13.720;2022-09-12T06:51:34;29.48;;;13.40;;
34982;SDS011;21187;50.976;13.720;2022-09-12T06:56:39;28.90;;;13.98;;
34982;SDS011;21187;50.976;13.720;2022-09-12T07:01:41;31.38;;;14.30;;
34982;SDS011;21187;50.976;13.720;2022-09-12T07:06:43;32.10;;;13.93;;
34982;SDS011;21187;50.976;13.720;2022-09-12T07:11:45;33.63;;;15.32;;
34982;SDS011;21187;50.976;13.720;2022-09-12T07:16:47;31.85;;;13.43;;
34982;SDS011;21187;50.976;13.720;2022-09-12T07:21:49;32.70;;;14.10;;
34982;SDS011;21187;50.976;13.720;2022-09-12T07:26:58;29.73;;;13.15;;
34982;SDS011;21187;50.976;13.720;2022-09-12T07:32:00;36.10;;;13.77;;
34982;SDS011;21187;50.976;13.720;2022-09-12T07:37:02;29.92;;;13.57;;
34982;SDS011;21187;50.976;13.720;2022-09-12T07:42:05;28.05;;;13.15;;
34982;SDS011;21187;50.976;13.720;2022-09-12T07:47:10;29.73;;;12.00;;
34982;SDS011;21187;50.976;13.720;2022-09-12T07:52:12;27.58;;;12.68;;
34982;SDS011;21187;50.976;13.720;2022-09-12T07:57:14;30.45;;;13.25;;
34982;SDS011;21187;50.976;13.720;2022-09-12T08:02:16;22.33;;;11.48;;
34982;SDS011;21187;50.976;13.720;2022-09-12T08:07:18;22.88;;;11.35;;
34982;SDS011;21187;50.976;13.720;2022-09-12T08:12:20;18.75;;;9.40;;
34982;SDS011;21187;50.976;13.720;2022-09-12T08:17:22;22.55;;;10.52;;
34982;SDS011;21187;50.976;13.720;2022-09-12T08:22:24;18.90;;;9.85;;
34982;SDS011;21187;50.976;13.720;2022-09-12T08:27:26;18.90;;;8.43;;
34982;SDS011;21187;50.976;13.720;2022-09-12T08:32:28;12.05;;;6.28;;
34982;SDS011;21187;50.976;13.720;2022-09-12T08:37:30;13.43;;;6.00;;
34982;SDS011;21187;50.976;13.720;2022-09-12T08:42:56;16.15;;;5.90;;
34982;SDS011;21187;50.976;13.720;2022-09-12T08:48:10;17.40;;;7.03;;
34982;SDS011;21187;50.976;13.720;2022-09-12T08:53:18;11.80;;;6.75;;
34982;SDS011;21187;50.976;13.720;2022-09-12T08:58:26;15.00;;;5.95;;
34982;SDS011;21187;50.976;13.720;2022-09-12T09:08:40;10.05;;;5.22;;
34982;SDS011;21187;50.976;13.720;2022-09-12T09:19:50;8.98;;;5.07;;
34982;SDS011;21187;50.976;13.720;2022-09-12T09:25:01;10.43;;;5.63;;
34982;SDS011;21187;50.976;13.720;2022-09-12T09:30:15;8.18;;;4.18;;
34982;SDS011;21187;50.976;13.720;2022-09-12T09:45:57;5.50;;;3.28;;
34982;SDS011;21187;50.976;13.720;2022-09-12T09:51:02;7.68;;;4.28;;
34982;SDS011;21187;50.976;13.720;2022-09-12T09:56:14;4.85;;;3.30;;
34982;SDS011;21187;50.976;13.720;2022-09-12T10:01:33;4.82;;;2.72;;
34982;SDS011;21187;50.976;13.720;2022-09-12T10:06:35;4.68;;;2.92;;
34982;SDS011;21187;50.976;13.720;2022-09-12T10:11:38;4.13;;;2.90;;
34982;SDS011;21187;50.976;13.720;2022-09-12T10:16:49;176.70;;;12.30;;
34982;SDS011;21187;50.976;13.720;2022-09-12T10:21:55;6.43;;;3.28;;
34982;SDS011;21187;50.976;13.720;2022-09-12T10:27:07;5.68;;;3.47;;
34982;SDS011;21187;50.976;13.720;2022-09-12T10:32:40;7.53;;;2.85;;
34982;SDS011;21187;50.976;13.720;2022-09-12T10:37:54;6.03;;;3.00;;
34982;SDS011;21187;50.976;13.720;2022-09-12T10:42:59;6.95;;;2.00;;
34982;SDS011;21187;50.976;13.720;2022-09-12T10:53:48;4.13;;;2.40;;
34982;SDS011;21187;50.976;13.720;2022-09-12T11:14:55;2.88;;;1.83;;
34982;SDS011;21187;50.976;13.720;2022-09-12T11:20:09;3.10;;;1.45;;
34982;SDS011;21187;50.976;13.720;2022-09-12T11:25:36;1.50;;;1.30;;
34982;SDS011;21187;50.976;13.720;2022-09-12T11:30:47;4.40;;;1.67;;
34982;SDS011;21187;50.976;13.720;2022-09-12T11:36:01;2.35;;;1.50;;
34982;SDS011;21187;50.976;13.720;2022-09-12T11:41:11;4.78;;;1.95;;
34982;SDS011;21187;50.976;13.720;2022-09-12T11:46:31;3.58;;;1.92;;
34982;SDS011;21187;50.976;13.720;2022-09-12T11:51:47;6.35;;;1.73;;
34982;SDS011;21187;50.976;13.720;2022-09-12T11:57:13;4.22;;;1.95;;
34982;SDS011;21187;50.976;13.720;2022-09-12T12:02:27;2.70;;;1.30;;
34982;SDS011;21187;50.976;13.720;2022-09-12T12:07:34;2.83;;;1.77;;
34982;SDS011;21187;50.976;13.720;2022-09-12T12:12:46;3.33;;;1.48;;
34982;SDS011;21187;50.976;13.720;2022-09-12T12:23:26;30.38;;;2.92;;
34982;SDS011;21187;50.976;13.720;2022-09-12T12:38:44;1.65;;;0.90;;
34982;SDS011;21187;50.976;13.720;2022-09-12T12:43:50;1.63;;;1.30;;
34982;SDS011;21187;50.976;13.720;2022-09-12T12:54:33;2.05;;;0.95;;
34982;SDS011;21187;50.976;13.720;2022-09-12T12:59:51;1.98;;;1.30;;
34982;SDS011;21187;50.976;13.720;2022-09-12T13:04:57;4.88;;;1.35;;
34982;SDS011;21187;50.976;13.720;2022-09-12T13:10:03;2.03;;;1.15;;
34982;SDS011;21187;50.976;13.720;2022-09-12T13:15:40;3.63;;;1.10;;
34982;SDS011;21187;50.976;13.720;2022-09-12T13:20:46;1.60;;;1.20;;
34982;SDS011;21187;50.976;13.720;2022-09-12T13:25:53;2.65;;;1.25;;
34982;SDS011;21187;50.976;13.720;2022-09-12T13:31:01;1.50;;;0.90;;
34982;SDS011;21187;50.976;13.720;2022-09-12T13:41:56;1.40;;;0.80;;
34982;SDS011;21187;50.976;13.720;2022-09-12T13:47:01;1.70;;;1.40;;
34982;SDS011;21187;50.976;13.720;2022-09-12T13:52:08;3.55;;;0.93;;
34982;SDS011;21187;50.976;13.720;2022-09-12T14:02:38;1.83;;;1.00;;
34982;SDS011;21187;50.976;13.720;2022-09-12T14:07:48;4.25;;;1.30;;
34982;SDS011;21187;50.976;13.720;2022-09-12T14:12:54;3.53;;;1.20;;
34982;SDS011;21187;50.976;13.720;2022-09-12T14:17:59;1.20;;;1.00;;
34982;SDS011;21187;50.976;13.720;2022-09-12T14:23:03;6.97;;;1.15;;
34982;SDS011;21187;50.976;13.720;2022-09-12T14:28:16;3.17;;;1.65;;
34982;SDS011;21187;50.976;13.720;2022-09-12T14:33:24;2.22;;;1.42;;
34982;SDS011;21187;50.976;13.720;2022-09-12T14:38:36;1.52;;;1.13;;
34982;SDS011;21187;50.976;13.720;2022-09-12T14:43:45;1.95;;;1.17;;
34982;SDS011;21187;50.976;13.720;2022-09-12T14:48:56;6.40;;;1.20;;
34982;SDS011;21187;50.976;13.720;2022-09-12T14:54:00;2.88;;;1.50;;
34982;SDS011;21187;50.976;13.720;2022-09-12T14:59:19;3.17;;;1.35;;
34982;SDS011;21187;50.976;13.720;2022-09-12T15:09:45;6.10;;;1.50;;
34982;SDS011;21187;50.976;13.720;2022-09-12T15:14:47;2.53;;;1.40;;
34982;SDS011;21187;50.976;13.720;2022-09-12T15:19:49;2.78;;;1.05;;
34982;SDS011;21187;50.976;13.720;2022-09-12T15:24:51;4.45;;;1.35;;
34982;SDS011;21187;50.976;13.720;2022-09-12T15:29:53;2.33;;;1.70;;
34982;SDS011;21187;50.976;13.720;2022-09-12T15:34:55;3.15;;;1.65;;
34982;SDS011;21187;50.976;13.720;2022-09-12T15:39:57;2.33;;;1.50;;
34982;SDS011;21187;50.976;13.720;2022-09-12T15:44:59;1.65;;;1.17;;
34982;SDS011;21187;50.976;13.720;2022-09-12T15:50:03;1.27;;;1.13;;
34982;SDS011;21187;50.976;13.720;2022-09-12T15:55:09;3.78;;;1.15;;
34982;SDS011;21187;50.976;13.720;2022-09-12T16:00:16;2.33;;;1.40;;
34982;SDS011;21187;50.976;13.720;2022-09-12T16:05:20;3.08;;;1.38;;
34982;SDS011;21187;50.976;13.720;2022-09-12T16:10:25;4.22;;;1.30;;
34982;SDS011;21187;50.976;13.720;2022-09-12T16:15:30;1.63;;;1.20;;
34982;SDS011;21187;50.976;13.720;2022-09-12T16:20:31;4.22;;;1.10;;
34982;SDS011;21187;50.976;13.720;2022-09-12T16:25:33;3.50;;;1.30;;
34982;SDS011;21187;50.976;13.720;2022-09-12T16:30:35;3.10;;;1.00;;
34982;SDS011;21187;50.976;13.720;2022-09-12T16:35:37;3.80;;;1.20;;
34982;SDS011;21187;50.976;13.720;2022-09-12T16:40:39;1.92;;;1.13;;
34982;SDS011;21187;50.976;13.720;2022-09-12T16:45:44;1.40;;;0.95;;
34982;SDS011;21187;50.976;13.720;2022-09-12T16:50:54;5.75;;;1.52;;
34982;SDS011;21187;50.976;13.720;2022-09-12T16:55:57;6.38;;;2.05;;
34982;SDS011;21187;50.976;13.720;2022-09-12T17:01:00;3.42;;;2.00;;
34982;SDS011;21187;50.976;13.720;2022-09-12T17:06:07;23.35;;;7.93;;
34982;SDS011;21187;50.976;13.720;2022-09-12T17:11:12;20.95;;;7.50;;
34982;SDS011;21187;50.976;13.720;2022-09-12T17:16:16;15.15;;;3.53;;
34982;SDS011;21187;50.976;13.720;2022-09-12T17:21:18;2.97;;;2.17;;
34982;SDS011;21187;50.976;13.720;2022-09-12T17:26:21;2.03;;;1.40;;
34982;SDS011;21187;50.976;13.720;2022-09-12T17:31:23;2.00;;;1.20;;
34982;SDS011;21187;50.976;13.720;2022-09-12T17:36:25;5.00;;;2.65;;
34982;SDS011;21187;50.976;13.720;2022-09-12T17:41:29;4.45;;;1.88;;
34982;SDS011;21187;50.976;13.720;2022-09-12T17:46:34;4.25;;;1.98;;
34982;SDS011;21187;50.976;13.720;2022-09-12T17:51:38;7.80;;;4.60;;
34982;SDS011;21187;50.976;13.720;2022-09-12T17:56:40;8.73;;;3.72;;
34982;SDS011;21187;50.976;13.720;2022-09-12T18:01:43;6.38;;;3.85;;
34982;SDS011;21187;50.976;13.720;2022-09-12T18:12:07;16.80;;;6.68;;
34982;SDS011;21187;50.976;13.720;2022-09-12T18:17:09;11.98;;;2.80;;
34982;SDS011;21187;50.976;13.720;2022-09-12T18:22:12;6.40;;;1.77;;
34982;SDS011;21187;50.976;13.720;2022-09-12T18:27:14;3.22;;;1.88;;
34982;SDS011;21187;50.976;13.720;2022-09-12T18:32:16;4.65;;;1.90;;
34982;SDS011;21187;50.976;13.720;2022-09-12T18:37:18;4.20;;;1.77;;
34982;SDS011;21187;50.976;13.720;2022-09-12T18:42:20;4.80;;;2.08;;
34982;SDS011;21187;50.976;13.720;2022-09-12T18:47:22;8.88;;;5.40;;
34982;SDS011;21187;50.976;13.720;2022-09-12T18:52:24;8.35;;;4.50;;
34982;SDS011;21187;50.976;13.720;2022-09-12T18:57:26;10.80;;;6.40;;
34982;SDS011;21187;50.976;13.720;2022-09-12T19:02:31;6.82;;;4.65;;
34982;SDS011;21187;50.976;13.720;2022-09-12T19:07:33;13.07;;;6.95;;
34982;SDS011;21187;50.976;13.720;2022-09-12T19:12:35;7.10;;;4.38;;
34982;SDS011;21187;50.976;13.720;2022-09-12T19:17:37;8.48;;;4.90;;
34982;SDS011;21187;50.976;13.720;2022-09-12T19:22:39;8.60;;;4.30;;
34982;SDS011;21187;50.976;13.720;2022-09-12T19:27:41;5.80;;;3.83;;
34982;SDS011;21187;50.976;13.720;2022-09-12T19:32:43;5.90;;;3.45;;
34982;SDS011;21187;50.976;13.720;2022-09-12T19:37:45;7.00;;;2.95;;
34982;SDS011;21187;50.976;13.720;2022-09-12T19:42:47;5.15;;;2.72;;
34982;SDS011;21187;50.976;13.720;2022-09-12T19:47:49;6.47;;;2.90;;
34982;SDS011;21187;50.976;13.720;2022-09-12T19:52:51;2.95;;;2.17;;
34982;SDS011;21187;50.976;13.720;2022-09-12T19:57:53;4.70;;;2.53;;
34982;SDS011;21187;50.976;13.720;2022-09-12T20:02:56;5.78;;;2.35;;
34982;SDS011;21187;50.976;13.720;2022-09-12T20:07:58;5.18;;;3.65;;
34982;SDS011;21187;50.976;13.720;2022-09-12T20:13:00;6.45;;;3.50;;
34982;SDS011;21187;50.976;13.720;2022-09-12T20:18:02;5.80;;;3.53;;
34982;SDS011;21187;50.976;13.720;2022-09-12T20:23:04;5.63;;;2.95;;
34982;SDS011;21187;50.976;13.720;2022-09-12T20:28:06;4.60;;;2.90;;
34982;SDS011;21187;50.976;13.720;2022-09-12T20:33:08;11.10;;;2.83;;
34982;SDS011;21187;50.976;13.720;2022-09-12T20:38:10;3.50;;;2.40;;
34982;SDS011;21187;50.976;13.720;2022-09-12T20:43:12;5.72;;;2.63;;
34982;SDS011;21187;50.976;13.720;2022-09-12T20:48:14;4.90;;;2.67;;
34982;SDS011;21187;50.976;13.720;2022-09-12T20:53:16;5.80;;;2.58;;
34982;SDS011;21187;50.976;13.720;2022-09-12T20:58:18;5.38;;;2.90;;
34982;SDS011;21187;50.976;13.720;2022-09-12T21:03:21;4.95;;;2.75;;
34982;SDS011;21187;50.976;13.720;2022-09-12T21:08:23;5.35;;;2.85;;
34982;SDS011;21187;50.976;13.720;2022-09-12T21:13:25;11.63;;;4.35;;
34982;SDS011;21187;50.976;13.720;2022-09-12T21:18:27;3.97;;;2.95;;
34982;SDS011;21187;50.976;13.720;2022-09-12T21:23:30;5.93;;;2.90;;
34982;SDS011;21187;50.976;13.720;2022-09-12T21:28:32;6.25;;;3.05;;
34982;SDS011;21187;50.976;13.720;2022-09-12T21:33:34;7.68;;;3.92;;
34982;SDS011;21187;50.976;13.720;2022-09-12T21:38:36;6.65;;;3.58;;
34982;SDS011;21187;50.976;13.720;2022-09-12T21:43:39;10.80;;;4.78;;
34982;SDS011;21187;50.976;13.720;2022-09-12T21:48:41;4.50;;;2.58;;
34982;SDS011;21187;50.976;13.720;2022-09-12T21:53:43;7.35;;;2.90;;
34982;SDS011;21187;50.976;13.720;2022-09-12T21:58:46;7.18;;;2.88;;
34982;SDS011;21187;50.976;13.720;2022-09-12T22:03:47;6.90;;;3.40;;
34982;SDS011;21187;50.976;13.720;2022-09-12T22:08:50;3.45;;;2.60;;
34982;SDS011;21187;50.976;13.720;2022-09-12T22:13:52;5.82;;;3.10;;
34982;SDS011;21187;50.976;13.720;2022-09-12T22:18:54;3.58;;;2.70;;
34982;SDS011;21187;50.976;13.720;2022-09-12T22:23:56;3.25;;;2.63;;
34982;SDS011;21187;50.976;13.720;2022-09-12T22:29:16;6.35;;;2.83;;
34982;SDS011;21187;50.976;13.720;2022-09-12T22:34:19;5.07;;;3.15;;
34982;SDS011;21187;50.976;13.720;2022-09-12T22:39:21;4.13;;;2.60;;
34982;SDS011;21187;50.976;13.720;2022-09-12T22:44:23;4.50;;;2.90;;
34982;SDS011;21187;50.976;13.720;2022-09-12T22:49:25;5.78;;;2.85;;
34982;SDS011;21187;50.976;13.720;2022-09-12T22:54:27;2.65;;;2.42;;
34982;SDS011;21187;50.976;13.720;2022-09-12T22:59:29;4.72;;;2.50;;
34982;SDS011;21187;50.976;13.720;2022-09-12T23:04:31;5.85;;;2.38;;
34982;SDS011;21187;50.976;13.720;2022-09-12T23:09:33;4.03;;;2.42;;
34982;SDS011;21187;50.976;13.720;2022-09-12T23:14:36;4.55;;;2.72;;
34982;SDS011;21187;50.976;13.720;2022-09-12T23:19:37;3.53;;;2.55;;
34982;SDS011;21187;50.976;13.720;2022-09-12T23:24:39;3.25;;;2.30;;
34982;SDS011;21187;50.976;13.720;2022-09-12T23:29:41;4.75;;;2.83;;
34982;SDS011;21187;50.976;13.720;2022-09-12T23:34:43;3.95;;;2.42;;
34982;SDS011;21187;50.976;13.720;2022-09-12T23:39:46;4.75;;;2.40;;
34982;SDS011;21187;50.976;13.720;2022-09-12T23:44:50;5.35;;;2.60;;
34982;SDS011;21187;50.976;13.720;2022-09-12T23:49:51;8.07;;;2.85;;
34982;SDS011;21187;50.976;13.720;2022-09-12T23:54:53;3.65;;;2.33;;
34982;SDS011;21187;50.976;13.720;2022-09-12T23:59:55;4.82;;;3.15;;
